Time;durP1;ratioP1;P1;durP2;ratioP2;P2;SDS_P1;SDS_P2;PMS_P1;PMS_P2;Temp;Humidity;BMP_temperature;BMP_pressure;BME280_temperature;BME280_humidity;BME280_pressure;Samples;Min_cycle;Max_cycle;Signal;HPM_P1;HPM_P2
2023/05/14 00:00:09;;;;;;;;;;;12.80;99.90;13.20;99432.00;;;;345752;28;91502;-90
2023/05/14 00:00:21;;;;;;;;;;;12.80;99.90;13.10;99434.00;;;;346207;28;83310;-89
2023/05/14 00:00:33;;;;;;;;;;;12.80;99.90;13.10;99434.00;;;;347295;28;90528;-90
2023/05/14 00:00:46;;;;;;;;;;;12.80;99.90;13.10;99426.00;;;;346170;28;82487;-90
2023/05/14 00:00:58;;;;;;;;;;;12.80;99.90;13.00;99430.00;;;;347050;28;92718;-89
2023/05/14 00:01:09;;;;;;;;;;;12.80;99.90;13.00;99431.00;;;;347651;28;82505;-90
2023/05/14 00:01:21;;;;;;;;;;;12.80;99.90;13.00;99434.00;;;;344464;28;91575;-89
2023/05/14 00:01:33;;;;;;;;;;;12.80;99.90;13.00;99425.00;;;;346303;28;83262;-89
2023/05/14 00:01:46;;;;;;;;;;;12.80;99.90;12.90;99428.00;;;;345803;28;91604;-90
2023/05/14 00:01:58;;;;;;;;;;;12.70;99.90;12.90;99427.00;;;;343522;28;83408;-90
2023/05/14 00:02:09;;;;;;;;;;;12.70;99.90;13.00;99431.00;;;;345562;28;90338;-89
2023/05/14 00:02:21;;;;;;;;;;;12.70;99.90;13.10;99430.00;;;;345036;28;82427;-89
2023/05/14 00:02:33;;;;;;;;;;;12.70;99.90;13.10;99430.00;;;;346971;28;89270;-90
2023/05/14 00:02:45;;;;;;;;;;;12.80;99.90;13.00;99434.00;;;;349100;27;82464;-89
2023/05/14 00:02:57;;;;;;;;;;;12.70;99.90;12.90;99432.00;;;;344326;28;91987;-89
2023/05/14 00:03:09;;;;;;;;;;;12.70;99.90;12.90;99424.00;;;;349055;27;83474;-90
2023/05/14 00:03:21;;;;;;;;;;;12.70;99.90;13.00;99424.00;;;;347374;28;91065;-89
2023/05/14 00:03:33;;;;;;;;;;;12.70;99.90;13.00;99424.00;;;;344774;28;83519;-89
2023/05/14 00:03:45;;;;;;;;;;;12.70;99.90;12.90;99420.00;;;;347042;28;90721;-88
2023/05/14 00:03:57;;;;;;;;;;;12.70;99.90;12.90;99423.00;;;;349024;27;83513;-90
2023/05/14 00:04:09;;;;;;;;;;;12.70;99.90;13.00;99427.00;;;;344419;28;90191;-90
2023/05/14 00:04:21;;;;;;;;;;;12.70;99.90;13.10;99424.00;;;;343575;28;82563;-89
2023/05/14 00:04:33;;;;;;;;;;;12.70;99.90;13.10;99426.00;;;;344413;28;90447;-89
2023/05/14 00:04:45;;;;;;;;;;;12.70;99.90;13.10;99428.00;;;;344881;28;83483;-90
2023/05/14 00:04:57;;;;;;;;;;;12.70;99.90;13.10;99432.00;;;;347041;27;92536;-90
2023/05/14 00:05:09;;;;;;;;;;;12.70;99.90;13.10;99424.00;;;;344930;28;83322;-89
2023/05/14 00:05:21;;;;;;;;;;;12.70;99.90;13.10;99427.00;;;;344474;28;91399;-90
2023/05/14 00:05:33;;;;;;;;;;;12.70;99.90;13.10;99425.00;;;;348991;27;83386;-90
2023/05/14 00:05:44;;;;;;;;;;;12.70;99.90;13.00;99431.00;;;;345766;28;91135;-89
2023/05/14 00:05:56;;;;;;;;;;;12.70;99.90;13.00;99428.00;;;;344858;28;83448;-90
2023/05/14 00:06:09;;;;;;;;;;;12.70;99.90;13.10;99425.00;;;;348528;27;90529;-89
2023/05/14 00:06:21;;;;;;;;;;;12.70;99.90;13.10;99428.00;;;;346316;28;82457;-90
2023/05/14 00:06:33;;;;;;;;;;;12.70;99.90;13.00;99423.00;;;;344384;28;90312;-89
2023/05/14 00:06:45;;;;;;;;;;;12.70;99.90;13.00;99429.00;;;;346176;28;82554;-90
2023/05/14 00:06:57;;;;;;;;;;;12.80;99.90;13.00;99426.00;;;;345717;28;92706;-90
2023/05/14 00:07:09;;;;;;;;;;;12.70;99.90;13.00;99424.00;;;;343378;28;82562;-89
2023/05/14 00:07:21;;;;;;;;;;;12.70;99.90;12.90;99426.00;;;;344484;28;91475;-90
2023/05/14 00:07:33;;;;;;;;;;;12.70;99.90;12.90;99415.00;;;;347572;28;82391;-90
2023/05/14 00:07:44;;;;;;;;;;;12.70;99.90;12.90;99428.00;;;;344376;28;91418;-89
2023/05/14 00:07:56;;;;;;;;;;;12.70;99.90;12.90;99428.00;;;;344951;28;82376;-89
2023/05/14 00:08:08;;;;;;;;;;;12.70;99.90;12.90;99424.00;;;;347171;28;90521;-89
2023/05/14 00:08:20;;;;;;;;;;;12.70;99.90;12.90;99425.00;;;;346207;28;83534;-89
2023/05/14 00:08:31;;;;;;;;;;;12.70;99.90;12.90;99427.00;;;;344426;28;91254;-89
2023/05/14 00:08:43;;;;;;;;;;;12.60;99.90;12.80;99421.00;;;;346098;28;83430;-89
2023/05/14 00:08:56;;;;;;;;;;;12.60;99.90;12.90;99430.00;;;;345717;28;92752;-89
2023/05/14 00:09:08;;;;;;;;;;;12.60;99.90;12.90;99424.00;;;;350447;27;82998;-89
2023/05/14 00:09:19;;;;;;;;;;;12.70;99.90;12.90;99428.00;;;;348619;27;91404;-89
2023/05/14 00:09:31;;;;;;;;;;;12.60;99.90;12.90;99426.00;;;;344802;28;82601;-90
2023/05/14 00:09:43;;;;;;;;;;;12.60;99.90;12.90;99435.00;;;;345787;28;91301;-89
2023/05/14 00:09:58;;;;;;;;;;;12.60;99.90;12.90;99424.00;;;;344865;28;83425;-90
2023/05/14 00:10:10;;;;;;;;;;;12.60;99.90;12.90;99430.00;;;;347142;27;90991;-89
2023/05/14 00:10:21;;;;;;;;;;;12.60;99.90;12.90;99431.00;;;;347665;28;83181;-90
2023/05/14 00:10:34;;;;;;;;;;;12.60;99.90;12.80;99426.00;;;;344193;28;89491;-89
2023/05/14 00:10:45;;;;;;;;;;;12.60;99.90;12.80;99430.00;;;;343480;28;83562;-89
2023/05/14 00:10:57;;;;;;;;;;;12.60;99.90;12.80;99432.00;;;;344299;28;90964;-89
2023/05/14 00:11:09;;;;;;;;;;;12.60;99.90;12.90;99423.00;;;;347703;28;83249;-89
2023/05/14 00:11:21;;;;;;;;;;;12.60;99.90;12.90;99427.00;;;;345859;28;89856;-89
2023/05/14 00:11:33;;;;;;;;;;;12.60;99.90;12.90;99424.00;;;;344796;28;83528;-90
2023/05/14 00:11:45;;;;;;;;;;;12.60;99.90;12.80;99428.00;;;;340066;28;91840;-89
2023/05/14 00:11:57;;;;;;;;;;;12.60;99.90;12.80;99426.00;;;;339259;28;82251;-89
2023/05/14 00:12:08;;;;;;;;;;;12.60;99.90;12.90;99420.00;;;;336144;28;91568;-89
2023/05/14 00:12:20;;;;;;;;;;;12.60;99.90;12.90;99415.00;;;;339238;28;83442;-89
2023/05/14 00:12:32;;;;;;;;;;;12.60;99.90;12.90;99424.00;;;;340003;28;89827;-89
2023/05/14 00:12:44;;;;;;;;;;;12.60;99.90;12.90;99419.00;;;;339224;28;83483;-90
2023/05/14 00:12:56;;;;;;;;;;;12.60;99.90;13.00;99421.00;;;;337433;28;91808;-89
2023/05/14 00:13:07;;;;;;;;;;;12.60;99.90;12.90;99420.00;;;;339279;28;82605;-90
2023/05/14 00:13:19;;;;;;;;;;;12.60;99.90;12.80;99419.00;;;;338810;28;90348;-89
2023/05/14 00:13:31;;;;;;;;;;;12.60;99.90;12.80;99423.00;;;;337848;28;83440;-89
2023/05/14 00:13:42;;;;;;;;;;;12.60;99.90;12.80;99422.00;;;;337473;28;90450;-89
2023/05/14 00:13:54;;;;;;;;;;;12.60;99.90;12.80;99424.00;;;;339168;28;82389;-90
2023/05/14 00:14:06;;;;;;;;;;;12.50;99.90;12.90;99428.00;;;;339937;28;89586;-89
2023/05/14 00:14:18;;;;;;;;;;;12.60;99.90;12.90;99420.00;;;;339238;28;83246;-89
2023/05/14 00:14:30;;;;;;;;;;;12.60;99.90;12.90;99421.00;;;;337514;28;90476;-90
2023/05/14 00:14:41;;;;;;;;;;;12.60;99.90;12.90;99420.00;;;;340585;28;83464;-90
2023/05/14 00:14:53;;;;;;;;;;;12.60;99.90;12.80;99414.00;;;;337327;28;92863;-90
2023/05/14 00:15:06;;;;;;;;;;;12.60;99.90;12.90;99413.00;;;;337874;28;83258;-90
2023/05/14 00:15:17;;;;;;;;;;;12.60;99.90;12.90;99418.00;;;;337486;28;91273;-90
2023/05/14 00:15:29;;;;;;;;;;;12.60;99.90;13.00;99418.00;;;;339153;28;83552;-90
2023/05/14 00:15:45;;;;;;;;;;;12.60;99.90;12.90;99414.00;;;;337550;28;90215;-90
2023/05/14 00:15:56;;;;;;;;;;;12.60;99.90;12.90;99425.00;;;;343492;28;82514;-90
2023/05/14 00:16:08;;;;;;;;;;;12.60;99.90;13.00;99423.00;;;;337453;28;91425;-90
2023/05/14 00:16:20;;;;;;;;;;;12.60;99.90;12.90;99419.00;;;;337921;28;82575;-90
2023/05/14 00:16:32;;;;;;;;;;;12.60;99.90;12.80;99421.00;;;;336161;28;91397;-89
2023/05/14 00:16:44;;;;;;;;;;;12.60;99.90;12.80;99417.00;;;;337912;28;82880;-89
2023/05/14 00:16:56;;;;;;;;;;;12.50;99.90;12.90;99414.00;;;;337383;28;91728;-90
2023/05/14 00:17:07;;;;;;;;;;;12.60;99.90;13.00;99409.00;;;;340542;28;83456;-89
2023/05/14 00:17:19;;;;;;;;;;;12.60;99.90;13.00;99409.00;;;;336161;28;91060;-90
2023/05/14 00:17:31;;;;;;;;;;;12.60;99.90;12.90;99421.00;;;;339156;28;82567;-90
2023/05/14 00:17:43;;;;;;;;;;;12.60;99.90;12.90;99424.00;;;;340145;28;90515;-90
2023/05/14 00:17:55;;;;;;;;;;;12.60;99.90;12.90;99412.00;;;;340554;28;83348;-90
2023/05/14 00:18:10;;;;;;;;;;;12.60;99.90;12.90;99419.00;;;;337465;28;91290;-90
2023/05/14 00:18:22;;;;;;;;;;;12.60;99.90;13.00;99416.00;;;;337937;28;83356;-90
2023/05/14 00:18:34;;;;;;;;;;;12.60;99.90;13.00;99414.00;;;;338916;28;88164;-90
2023/05/14 00:18:46;;;;;;;;;;;12.60;99.90;13.00;99419.00;;;;337883;28;83433;-90
2023/05/14 00:18:58;;;;;;;;;;;12.60;99.90;13.00;99416.00;;;;338700;28;91603;-90
2023/05/14 00:19:10;;;;;;;;;;;12.60;99.90;13.00;99419.00;;;;340290;28;83548;-90
2023/05/14 00:19:22;;;;;;;;;;;12.60;99.90;13.00;99409.00;;;;338917;28;90441;-89
2023/05/14 00:19:33;;;;;;;;;;;12.60;99.90;13.00;99410.00;;;;340605;28;82375;-90
2023/05/14 00:19:45;;;;;;;;;;;12.60;99.90;13.00;99418.00;;;;337445;28;91573;-90
2023/05/14 00:19:58;;;;;;;;;;;12.60;99.90;13.10;99413.00;;;;339256;28;83444;-90
2023/05/14 00:20:11;;;;;;;;;;;12.60;99.90;13.00;99413.00;;;;338748;28;90135;-90
2023/05/14 00:20:22;;;;;;;;;;;12.60;99.90;13.10;99414.00;;;;338063;28;83310;-90
2023/05/14 00:20:34;;;;;;;;;;;12.60;99.90;13.10;99415.00;;;;336227;28;91958;-90
2023/05/14 00:20:46;;;;;;;;;;;12.70;99.90;13.10;99415.00;;;;340495;28;82482;-90
2023/05/14 00:20:58;;;;;;;;;;;12.60;99.90;13.10;99418.00;;;;338748;28;91261;-90
2023/05/14 00:21:10;;;;;;;;;;;12.70;99.90;13.10;99407.00;;;;340646;28;83354;-90
2023/05/14 00:21:22;;;;;;;;;;;12.70;99.90;13.20;99414.00;;;;338888;28;90959;-90
2023/05/14 00:21:34;;;;;;;;;;;12.70;99.90;13.10;99407.00;;;;340553;28;83550;-90
2023/05/14 00:21:46;;;;;;;;;;;12.70;99.90;13.00;99407.00;;;;340176;28;89865;-90
2023/05/14 00:21:58;;;;;;;;;;;12.70;99.90;13.00;99409.00;;;;344941;28;82617;-90
2023/05/14 00:22:10;;;;;;;;;;;12.70;99.90;13.00;99412.00;;;;345738;28;90394;-90
2023/05/14 00:22:21;;;;;;;;;;;12.70;99.90;13.10;99412.00;;;;341937;28;83344;-90
2023/05/14 00:22:33;;;;;;;;;;;12.70;99.90;13.00;99408.00;;;;338800;28;91974;-90
2023/05/14 00:22:45;;;;;;;;;;;12.70;99.90;13.10;99408.00;;;;340583;28;82460;-90
2023/05/14 00:22:57;;;;;;;;;;;12.70;99.90;13.00;99414.00;;;;340051;28;91323;-90
2023/05/14 00:23:08;;;;;;;;;;;12.70;99.90;13.00;99415.00;;;;340593;28;82313;-90
2023/05/14 00:23:21;;;;;;;;;;;12.70;99.90;13.00;99410.00;;;;340159;28;91521;-90
2023/05/14 00:23:33;;;;;;;;;;;12.70;99.90;12.90;99410.00;;;;337870;28;82533;-90
2023/05/14 00:23:45;;;;;;;;;;;12.70;99.90;12.90;99412.00;;;;338809;28;90521;-90
2023/05/14 00:23:56;;;;;;;;;;;12.70;99.90;12.90;99418.00;;;;340572;28;83417;-90
2023/05/14 00:24:08;;;;;;;;;;;12.70;99.90;12.80;99411.00;;;;338674;28;91031;-89
2023/05/14 00:24:20;;;;;;;;;;;12.60;99.90;12.80;99416.00;;;;340602;28;83445;-90
2023/05/14 00:24:32;;;;;;;;;;;12.60;99.90;12.90;99415.00;;;;337453;28;91440;-90
2023/05/14 00:24:44;;;;;;;;;;;12.60;99.90;12.80;99416.00;;;;339220;28;82482;-89
2023/05/14 00:24:56;;;;;;;;;;;12.60;99.90;12.70;99414.00;;;;340074;28;92405;-90
2023/05/14 00:25:08;;;;;;;;;;;12.60;99.90;12.80;99412.00;;;;337844;28;82551;-90
2023/05/14 00:25:20;;;;;;;;;;;12.60;99.90;12.80;99418.00;;;;338823;28;90946;-89
2023/05/14 00:25:32;;;;;;;;;;;12.60;99.90;12.80;99413.00;;;;339172;28;83516;-90
2023/05/14 00:25:43;;;;;;;;;;;12.60;99.90;12.80;99410.00;;;;338779;28;91717;-90
2023/05/14 00:25:55;;;;;;;;;;;12.60;99.90;12.90;99419.00;;;;337895;28;82491;-89
2023/05/14 00:26:07;;;;;;;;;;;12.60;99.90;12.90;99413.00;;;;337477;28;90373;-90
2023/05/14 00:26:20;;;;;;;;;;;12.60;99.90;12.80;99406.00;;;;337836;28;82640;-90
2023/05/14 00:26:32;;;;;;;;;;;12.60;99.90;12.70;99415.00;;;;336184;28;91071;-90
2023/05/14 00:26:43;;;;;;;;;;;12.60;99.90;12.80;99414.00;;;;337817;28;82558;-90
2023/05/14 00:26:55;;;;;;;;;;;12.50;99.90;12.80;99412.00;;;;338727;28;92502;-90
2023/05/14 00:27:07;;;;;;;;;;;12.50;99.90;12.80;99413.00;;;;339204;28;82578;-90
2023/05/14 00:27:19;;;;;;;;;;;12.60;99.90;12.90;99414.00;;;;338777;28;91134;-90
2023/05/14 00:27:31;;;;;;;;;;;12.60;99.90;12.80;99410.00;;;;336573;28;83441;-89
2023/05/14 00:27:42;;;;;;;;;;;12.60;99.90;12.90;99406.00;;;;340125;28;90613;-90
2023/05/14 00:27:54;;;;;;;;;;;12.50;99.90;12.70;99406.00;;;;340536;28;83362;-90
2023/05/14 00:28:06;;;;;;;;;;;12.50;99.90;12.80;99417.00;;;;338797;28;91848;-90
2023/05/14 00:28:18;;;;;;;;;;;12.60;99.90;12.80;99414.00;;;;339208;28;83320;-89
2023/05/14 00:28:30;;;;;;;;;;;12.60;99.90;12.80;99411.00;;;;338888;28;89961;-90
2023/05/14 00:28:41;;;;;;;;;;;12.50;99.90;12.80;99410.00;;;;339171;28;83474;-90
2023/05/14 00:28:53;;;;;;;;;;;12.60;99.90;12.70;99411.00;;;;338771;28;91453;-89
2023/05/14 00:29:05;;;;;;;;;;;12.60;99.90;12.70;99415.00;;;;339304;28;82475;-90
2023/05/14 00:29:17;;;;;;;;;;;12.50;99.90;12.70;99414.00;;;;337515;28;90964;-90
2023/05/14 00:29:28;;;;;;;;;;;12.50;99.90;12.70;99422.00;;;;339238;28;82294;-90
2023/05/14 00:29:40;;;;;;;;;;;12.50;99.90;12.70;99410.00;;;;345689;28;91421;-90
2023/05/14 00:29:52;;;;;;;;;;;12.50;99.90;12.70;99420.00;;;;339116;28;82414;-90
2023/05/14 00:30:05;;;;;;;;;;;12.50;99.90;12.70;99419.00;;;;337433;28;91639;-90
2023/05/14 00:30:17;;;;;;;;;;;12.50;99.90;12.80;99419.00;;;;337831;28;82519;-89
2023/05/14 00:30:29;;;;;;;;;;;12.50;99.90;12.80;99413.00;;;;337569;28;90276;-89
2023/05/14 00:30:41;;;;;;;;;;;12.50;99.90;12.80;99412.00;;;;340572;28;82495;-90
2023/05/14 00:30:53;;;;;;;;;;;12.50;99.90;12.80;99416.00;;;;337454;28;92299;-90
2023/05/14 00:31:05;;;;;;;;;;;12.50;99.90;12.80;99417.00;;;;337932;28;83493;-89
2023/05/14 00:31:16;;;;;;;;;;;12.50;99.90;12.80;99418.00;;;;337461;28;90188;-90
2023/05/14 00:31:28;;;;;;;;;;;12.50;99.90;12.70;99405.00;;;;339200;28;83415;-90
2023/05/14 00:31:40;;;;;;;;;;;12.50;99.90;12.80;99418.00;;;;344371;28;90929;-90
2023/05/14 00:31:52;;;;;;;;;;;12.50;99.90;12.80;99415.00;;;;337900;28;83514;-90
2023/05/14 00:32:05;;;;;;;;;;;12.50;99.90;12.80;99416.00;;;;344365;28;90932;-90
2023/05/14 00:32:16;;;;;;;;;;;12.50;99.90;12.80;99411.00;;;;346179;28;82555;-89
2023/05/14 00:32:28;;;;;;;;;;;12.50;99.90;12.80;99411.00;;;;338830;28;91830;-90
2023/05/14 00:32:40;;;;;;;;;;;12.50;99.90;12.80;99411.00;;;;338012;28;83278;-89
2023/05/14 00:32:52;;;;;;;;;;;12.50;99.90;12.70;99416.00;;;;336048;28;92182;-90
2023/05/14 00:33:04;;;;;;;;;;;12.50;99.90;12.80;99407.00;;;;337884;28;83433;-90
2023/05/14 00:33:16;;;;;;;;;;;12.50;99.90;12.80;99412.00;;;;338840;28;89012;-89
2023/05/14 00:33:28;;;;;;;;;;;12.50;99.90;12.90;99407.00;;;;340547;28;82383;-90
2023/05/14 00:33:39;;;;;;;;;;;12.50;99.90;12.80;99415.00;;;;338762;28;90810;-89
2023/05/14 00:33:51;;;;;;;;;;;12.50;99.90;12.70;99405.00;;;;341952;28;82514;-90
2023/05/14 00:34:03;;;;;;;;;;;12.50;99.90;12.70;99411.00;;;;336187;28;89035;-90
2023/05/14 00:34:15;;;;;;;;;;;12.50;99.90;12.70;99411.00;;;;337934;28;82568;-90
2023/05/14 00:34:26;;;;;;;;;;;12.50;99.90;12.80;99412.00;;;;338805;28;90323;-90
2023/05/14 00:34:38;;;;;;;;;;;12.50;99.90;12.90;99406.00;;;;340752;27;83538;-90
2023/05/14 00:34:50;;;;;;;;;;;12.50;99.90;12.80;99409.00;;;;337414;28;92519;-90
2023/05/14 00:35:03;;;;;;;;;;;12.50;99.90;12.90;99409.00;;;;339262;28;82485;-90
2023/05/14 00:35:15;;;;;;;;;;;12.50;99.90;12.80;99409.00;;;;340140;28;90870;-90
2023/05/14 00:35:27;;;;;;;;;;;12.50;99.90;12.80;99406.00;;;;341836;28;83544;-90
2023/05/14 00:35:38;;;;;;;;;;;12.50;99.90;12.80;99408.00;;;;339937;28;90778;-90
2023/05/14 00:35:50;;;;;;;;;;;12.50;99.90;12.70;99414.00;;;;344778;28;83523;-90
2023/05/14 00:36:02;;;;;;;;;;;12.50;99.90;12.70;99406.00;;;;344448;28;90295;-90
2023/05/14 00:36:15;;;;;;;;;;;12.50;99.90;12.70;99403.00;;;;339259;28;83457;-90
2023/05/14 00:36:26;;;;;;;;;;;12.50;99.90;12.80;99403.00;;;;336052;28;91262;-89
2023/05/14 00:36:38;;;;;;;;;;;12.50;99.90;12.70;99406.00;;;;339183;28;83464;-89
2023/05/14 00:36:50;;;;;;;;;;;12.50;99.90;12.80;99405.00;;;;338781;28;90841;-90
2023/05/14 00:37:02;;;;;;;;;;;12.50;99.90;12.80;99406.00;;;;339186;28;83419;-89
2023/05/14 00:37:13;;;;;;;;;;;12.50;99.90;12.80;99407.00;;;;338776;28;91743;-90
2023/05/14 00:37:25;;;;;;;;;;;12.50;99.90;12.80;99410.00;;;;339207;28;83327;-90
2023/05/14 00:37:37;;;;;;;;;;;12.50;99.90;12.80;99399.00;;;;337541;28;91677;-90
2023/05/14 00:37:49;;;;;;;;;;;12.50;99.90;12.90;99397.00;;;;339183;28;83434;-91
2023/05/14 00:38:02;;;;;;;;;;;12.50;99.90;12.80;99408.00;;;;340219;28;90302;-90
2023/05/14 00:38:18;;;;;;;;;;;12.50;99.90;12.70;99406.00;;;;339266;28;82520;-90
2023/05/14 00:38:29;;;;;;;;;;;12.50;99.90;12.60;99405.00;;;;338842;28;89953;-90
2023/05/14 00:38:41;;;;;;;;;;;12.50;99.90;12.70;99410.00;;;;340579;28;82528;-90
2023/05/14 00:38:53;;;;;;;;;;;12.50;99.90;12.70;99412.00;;;;340028;28;92403;-90
2023/05/14 00:39:05;;;;;;;;;;;12.50;99.90;12.80;99407.00;;;;337941;28;82538;-90
2023/05/14 00:39:16;;;;;;;;;;;12.40;99.90;12.70;99402.00;;;;336189;28;90348;-90
2023/05/14 00:39:28;;;;;;;;;;;12.50;99.90;12.70;99410.00;;;;337900;28;82567;-90
2023/05/14 00:39:40;;;;;;;;;;;12.50;99.90;12.80;99411.00;;;;337435;28;91414;-89
2023/05/14 00:39:52;;;;;;;;;;;12.50;99.90;12.70;99411.00;;;;339243;28;83295;-90
2023/05/14 00:40:05;;;;;;;;;;;12.50;99.90;12.60;99406.00;;;;338751;28;90752;-90
2023/05/14 00:40:18;;;;;;;;;;;12.40;99.90;12.60;99414.00;;;;339213;28;83502;-90
2023/05/14 00:40:30;;;;;;;;;;;12.40;99.90;12.60;99405.00;;;;338817;28;90302;-90
2023/05/14 00:40:44;;;;;;;;;;;12.50;99.90;12.60;99401.00;;;;346206;28;83220;-90
2023/05/14 00:40:56;;;;;;;;;;;12.40;99.90;12.60;99402.00;;;;345730;28;92290;-90
2023/05/14 00:41:08;;;;;;;;;;;12.40;99.90;12.60;99404.00;;;;339257;28;82465;-89
2023/05/14 00:41:20;;;;;;;;;;;12.40;99.90;12.70;99400.00;;;;340128;28;91472;-89
2023/05/14 00:41:32;;;;;;;;;;;12.40;99.90;12.60;99401.00;;;;339190;28;83606;-89
2023/05/14 00:41:44;;;;;;;;;;;12.40;99.90;12.60;99403.00;;;;338735;28;91867;-90
2023/05/14 00:41:55;;;;;;;;;;;12.40;99.90;12.70;99406.00;;;;340632;28;83381;-89
2023/05/14 00:42:07;;;;;;;;;;;12.40;99.90;12.70;99398.00;;;;340109;28;90471;-90
2023/05/14 00:42:19;;;;;;;;;;;12.40;99.90;12.70;99404.00;;;;339198;28;83572;-89
2023/05/14 00:42:31;;;;;;;;;;;12.40;99.90;12.60;99405.00;;;;340111;28;90608;-89
2023/05/14 00:42:43;;;;;;;;;;;12.40;99.90;12.70;99410.00;;;;339133;28;83263;-90
2023/05/14 00:42:54;;;;;;;;;;;12.40;99.90;12.60;99396.00;;;;340120;28;92463;-90
2023/05/14 00:43:06;;;;;;;;;;;12.40;99.90;12.60;99407.00;;;;339209;28;83451;-89
2023/05/14 00:43:18;;;;;;;;;;;12.40;99.90;12.70;99406.00;;;;337574;28;88062;-90
2023/05/14 00:43:32;;;;;;;;;;;12.40;99.90;12.70;99408.00;;;;337824;28;82510;-90
2023/05/14 00:43:43;;;;;;;;;;;12.40;99.90;12.70;99403.00;;;;338843;28;87845;-90
2023/05/14 00:43:55;;;;;;;;;;;12.40;99.90;12.70;99404.00;;;;347651;28;83275;-89
2023/05/14 00:44:07;;;;;;;;;;;12.40;99.90;12.80;99405.00;;;;344328;28;90709;-90
2023/05/14 00:44:19;;;;;;;;;;;12.40;99.90;12.80;99407.00;;;;344765;28;82553;-89
2023/05/14 00:44:30;;;;;;;;;;;12.40;99.90;12.70;99405.00;;;;345773;28;90396;-90
2023/05/14 00:44:42;;;;;;;;;;;12.40;99.90;12.70;99399.00;;;;346163;28;82545;-89
2023/05/14 00:44:54;;;;;;;;;;;12.40;99.90;12.70;99406.00;;;;345748;28;92230;-90
2023/05/14 00:45:06;;;;;;;;;;;12.40;99.90;12.70;99406.00;;;;346236;28;82468;-89
2023/05/14 00:45:18;;;;;;;;;;;12.40;99.90;12.80;99399.00;;;;347118;28;92074;-90
2023/05/14 00:45:30;;;;;;;;;;;12.40;99.90;12.80;99411.00;;;;348874;27;83434;-90
2023/05/14 00:45:42;;;;;;;;;;;12.40;99.90;12.80;99403.00;;;;345782;28;91630;-90
2023/05/14 00:45:54;;;;;;;;;;;12.50;99.90;12.90;99404.00;;;;346273;28;82378;-90
2023/05/14 00:46:06;;;;;;;;;;;12.50;99.90;12.80;99409.00;;;;347127;28;91886;-90
2023/05/14 00:46:18;;;;;;;;;;;12.50;99.90;12.90;99404.00;;;;346172;28;83429;-90
2023/05/14 00:46:30;;;;;;;;;;;12.50;99.90;12.90;99412.00;;;;345637;28;91831;-89
2023/05/14 00:46:42;;;;;;;;;;;12.50;99.90;12.80;99412.00;;;;346209;28;83358;-90
2023/05/14 00:46:54;;;;;;;;;;;12.50;99.90;12.80;99405.00;;;;345807;28;91316;-90
2023/05/14 00:47:06;;;;;;;;;;;12.50;99.90;12.70;99414.00;;;;346247;28;82579;-90
2023/05/14 00:47:18;;;;;;;;;;;12.40;99.90;12.80;99408.00;;;;347104;28;91690;-90
2023/05/14 00:47:30;;;;;;;;;;;12.50;99.90;12.80;99415.00;;;;347495;28;82394;-90
2023/05/14 00:47:42;;;;;;;;;;;12.40;99.90;12.80;99408.00;;;;347146;28;90437;-90
2023/05/14 00:47:54;;;;;;;;;;;12.50;99.90;12.80;99395.00;;;;347624;28;83344;-90
2023/05/14 00:48:06;;;;;;;;;;;12.50;99.90;12.90;99405.00;;;;345789;28;92059;-89
2023/05/14 00:48:18;;;;;;;;;;;12.50;99.90;12.90;99400.00;;;;347426;27;83607;-89
2023/05/14 00:48:30;;;;;;;;;;;12.50;99.90;12.90;99410.00;;;;347084;28;91459;-90
2023/05/14 00:48:43;;;;;;;;;;;12.50;99.90;12.90;99407.00;;;;346264;28;82585;-90
2023/05/14 00:48:55;;;;;;;;;;;12.50;99.90;13.00;99401.00;;;;347102;27;92162;-90
2023/05/14 00:49:06;;;;;;;;;;;12.50;99.90;12.90;99415.00;;;;347675;28;83418;-89
2023/05/14 00:49:18;;;;;;;;;;;12.50;99.90;12.90;99401.00;;;;347126;28;90803;-90
2023/05/14 00:49:30;;;;;;;;;;;12.50;99.90;13.00;99410.00;;;;346049;28;83554;-90
2023/05/14 00:49:42;;;;;;;;;;;12.50;99.90;13.00;99403.00;;;;347260;28;90468;-90
2023/05/14 00:49:54;;;;;;;;;;;12.50;99.90;13.00;99398.00;;;;344808;28;83412;-90
2023/05/14 00:50:06;;;;;;;;;;;12.50;99.90;13.00;99406.00;;;;344405;28;89915;-90
2023/05/14 00:50:18;;;;;;;;;;;12.60;99.90;13.10;99413.00;;;;346104;28;83338;-89
2023/05/14 00:50:30;;;;;;;;;;;12.60;99.90;13.10;99406.00;;;;347122;28;91220;-90
2023/05/14 00:50:42;;;;;;;;;;;12.60;99.90;13.10;99402.00;;;;347567;28;82625;-90
2023/05/14 00:50:54;;;;;;;;;;;12.60;99.90;13.00;99411.00;;;;345739;28;91617;-90
2023/05/14 00:51:06;;;;;;;;;;;12.60;99.90;13.00;99401.00;;;;346180;28;83310;-89
2023/05/14 00:51:18;;;;;;;;;;;12.60;99.90;13.00;99406.00;;;;348564;27;91686;-89
2023/05/14 00:51:30;;;;;;;;;;;12.60;99.90;13.00;99399.00;;;;346064;28;83530;-90
2023/05/14 00:51:45;;;;;;;;;;;12.60;99.90;13.10;99406.00;;;;344462;28;90451;-90
2023/05/14 00:51:59;;;;;;;;;;;12.60;99.90;13.10;99407.00;;;;346237;28;83366;-90
2023/05/14 00:52:11;;;;;;;;;;;12.60;99.90;13.10;99408.00;;;;345764;28;91015;-89
2023/05/14 00:52:22;;;;;;;;;;;12.60;99.90;13.10;99401.00;;;;344876;28;83450;-90
2023/05/14 00:52:35;;;;;;;;;;;12.60;99.90;13.00;99401.00;;;;346974;27;91798;-90
2023/05/14 00:52:46;;;;;;;;;;;12.60;99.90;13.10;99400.00;;;;346138;28;82437;-90
2023/05/14 00:52:58;;;;;;;;;;;12.60;99.90;13.00;99396.00;;;;345740;28;91872;-90
2023/05/14 00:53:10;;;;;;;;;;;12.70;99.90;13.10;99404.00;;;;347530;28;83420;-90
2023/05/14 00:53:22;;;;;;;;;;;12.70;99.90;13.00;99393.00;;;;344435;28;90459;-90
2023/05/14 00:53:34;;;;;;;;;;;12.70;99.90;13.00;99401.00;;;;346178;28;82333;-90
2023/05/14 00:53:46;;;;;;;;;;;12.70;99.90;12.90;99399.00;;;;348493;27;91595;-90
2023/05/14 00:53:58;;;;;;;;;;;12.70;99.90;12.90;99407.00;;;;347586;28;82361;-90
2023/05/14 00:54:10;;;;;;;;;;;12.70;99.90;12.90;99397.00;;;;347047;27;90257;-90
2023/05/14 00:54:21;;;;;;;;;;;12.70;99.90;12.90;99403.00;;;;346192;28;82503;-90
2023/05/14 00:54:33;;;;;;;;;;;12.70;99.90;13.00;99403.00;;;;347119;28;91575;-90
2023/05/14 00:54:45;;;;;;;;;;;12.70;99.90;13.00;99401.00;;;;344797;28;82508;-90
2023/05/14 00:54:57;;;;;;;;;;;12.70;99.90;13.00;99411.00;;;;347039;28;92765;-90
2023/05/14 00:55:11;;;;;;;;;;;12.70;99.90;13.00;99400.00;;;;347580;28;83203;-90
2023/05/14 00:55:23;;;;;;;;;;;12.70;99.90;13.00;99403.00;;;;345703;28;92192;-90
2023/05/14 00:55:39;;;;;;;;;;;12.70;99.90;12.90;99408.00;;;;346095;28;83619;-90
2023/05/14 00:55:51;;;;;;;;;;;12.70;99.90;12.90;99410.00;;;;345808;28;91558;-90
2023/05/14 00:56:03;;;;;;;;;;;12.70;99.90;12.90;99406.00;;;;346162;28;82428;-90
2023/05/14 00:56:15;;;;;;;;;;;12.60;99.90;13.00;99402.00;;;;344354;28;91160;-90
2023/05/14 00:56:27;;;;;;;;;;;12.60;99.90;13.00;99403.00;;;;344734;28;83323;-89
2023/05/14 00:56:39;;;;;;;;;;;12.60;99.90;13.00;99404.00;;;;348447;27;90664;-90
2023/05/14 00:56:51;;;;;;;;;;;12.60;99.90;13.00;99400.00;;;;346153;28;83536;-89
2023/05/14 00:57:03;;;;;;;;;;;12.60;99.90;13.00;99401.00;;;;345774;28;92719;-90
2023/05/14 00:57:16;;;;;;;;;;;12.60;99.90;13.00;99404.00;;;;348934;27;82468;-90
2023/05/14 00:57:28;;;;;;;;;;;12.70;99.90;13.00;99405.00;;;;344394;28;89844;-90
2023/05/14 00:57:40;;;;;;;;;;;12.70;99.90;12.90;99399.00;;;;346062;28;82693;-90
2023/05/14 00:57:52;;;;;;;;;;;12.60;99.90;12.90;99400.00;;;;348523;27;90172;-90
2023/05/14 00:58:11;;;;;;;;;;;12.60;99.90;12.90;99401.00;;;;346222;28;82565;-89
2023/05/14 00:58:23;;;;;;;;;;;12.70;99.90;13.00;99407.00;;;;347112;28;91128;-90
2023/05/14 00:58:35;;;;;;;;;;;12.70;99.90;13.00;99406.00;;;;347545;28;83464;-89
2023/05/14 00:58:46;;;;;;;;;;;12.70;99.90;12.90;99400.00;;;;347097;27;90403;-90
2023/05/14 00:58:58;;;;;;;;;;;12.60;99.90;12.90;99404.00;;;;346296;28;82527;-90
2023/05/14 00:59:10;;;;;;;;;;;12.60;99.90;12.80;99404.00;;;;344296;28;92333;-90
2023/05/14 00:59:22;;;;;;;;;;;12.60;99.90;12.80;99407.00;;;;346173;28;83380;-90
2023/05/14 00:59:34;;;;;;;;;;;12.60;99.90;13.00;99404.00;;;;344395;28;90539;-90